Time;durP1;ratioP1;P1;durP2;ratioP2;P2;SDS_P1;SDS_P2;PMS_P1;PMS_P2;Temp;Humidity;BMP_temperature;BMP_pressure;BME280_temperature;BME280_humidity;BME280_pressure;Samples;Min_cycle;Max_cycle;Signal;HPM_P1;HPM_P2
2021/12/22 00:01:23;;;;;;;5.68;3.50;;;;;;;-6.71;40.54;99178.41;3394268;29;20103;-68
2021/12/22 00:03:07;;;;;;;7.50;3.55;;;;;;;-6.71;40.54;99178.41;3393341;29;20044;-68
2021/12/22 00:04:49;;;;;;;6.15;3.13;;;;;;;-6.70;40.23;99180.03;3393591;29;20066;-68
2021/12/22 00:06:32;;;;;;;4.65;3.15;;;;;;;-6.69;40.34;99183.47;3390372;29;20520;-70
2021/12/22 00:08:13;;;;;;;3.85;2.28;;;;;;;-6.71;40.39;99177.53;3378735;29;20123;-67
2021/12/22 00:09:54;;;;;;;5.70;2.60;;;;;;;-6.70;40.42;99185.22;3392465;29;20032;-67
2021/12/22 00:11:35;;;;;;;13.32;2.40;;;;;;;-6.74;40.54;99173.38;3392632;29;20075;-70
2021/12/22 00:13:16;;;;;;;5.95;3.05;;;;;;;-6.71;40.18;99182.72;3394506;29;20067;-70
2021/12/22 00:14:56;;;;;;;4.18;2.13;;;;;;;-6.71;40.40;99180.13;3391799;29;20052;-69
2021/12/22 00:16:37;;;;;;;6.00;3.70;;;;;;;-6.69;40.42;99188.63;3390493;29;20036;-68
2021/12/22 00:18:18;;;;;;;6.38;2.60;;;;;;;-6.72;40.36;99181.06;3390658;29;20047;-69
2021/12/22 00:19:59;;;;;;;6.95;2.55;;;;;;;-6.71;40.28;99183.56;3391466;29;20067;-69
2021/12/22 00:21:39;;;;;;;4.80;3.15;;;;;;;-6.72;40.19;99186.25;3376625;29;20069;-70
2021/12/22 00:23:20;;;;;;;3.88;2.30;;;;;;;-6.72;40.13;99188.84;3388206;29;20080;-70
2021/12/22 00:25:02;;;;;;;5.53;2.90;;;;;;;-6.74;40.29;99186.34;3377398;29;20064;-69
2021/12/22 00:26:43;;;;;;;4.30;2.97;;;;;;;-6.75;40.31;99182.09;3387622;29;20088;-68
2021/12/22 00:28:24;;;;;;;5.82;2.83;;;;;;;-6.76;40.11;99189.94;3393353;29;20104;-71
2021/12/22 00:30:06;;;;;;;5.90;2.38;;;;;;;-6.83;40.26;99174.81;3390654;29;20489;-68
2021/12/22 00:31:58;;;;;;;4.20;2.60;;;;;;;-6.81;40.17;99187.69;3394821;29;20051;-71
2021/12/22 00:33:50;;;;;;;4.57;2.10;;;;;;;-6.84;40.39;99190.44;3390619;29;20044;-70
2021/12/22 00:35:45;;;;;;;8.00;3.13;;;;;;;-6.86;40.49;99190.56;3390017;29;20052;-69
2021/12/22 00:37:29;;;;;;;3.38;2.33;;;;;;;-6.86;40.51;99195.72;3390971;29;20078;-69
2021/12/22 00:39:10;;;;;;;7.38;2.40;;;;;;;-6.86;40.71;99195.72;3391157;29;20060;-70
2021/12/22 00:40:51;;;;;;;4.15;2.78;;;;;;;-6.85;40.72;99205.16;3392324;29;20108;-71
2021/12/22 00:42:32;;;;;;;5.00;2.30;;;;;;;-6.86;40.56;99198.31;3401181;29;20495;-70
2021/12/22 00:44:13;;;;;;;6.55;2.85;;;;;;;-6.88;40.60;99202.75;3377891;29;20055;-69
2021/12/22 00:45:56;;;;;;;3.60;2.40;;;;;;;-6.90;40.68;99201.19;3377829;29;20546;-69
2021/12/22 00:47:37;;;;;;;6.68;3.50;;;;;;;-6.93;40.58;99212.56;3378325;29;20104;-70
2021/12/22 00:49:17;;;;;;;5.30;2.65;;;;;;;-6.96;40.63;99214.53;3378556;29;20496;-70
2021/12/22 00:50:59;;;;;;;4.47;3.00;;;;;;;-7.00;40.72;99218.22;3390796;29;20479;-70
2021/12/22 00:52:40;;;;;;;4.93;2.70;;;;;;;-7.03;40.77;99214.91;3390842;29;20044;-69
2021/12/22 00:54:22;;;;;;;5.63;3.25;;;;;;;-7.07;40.71;99213.44;3390738;29;20076;-69
2021/12/22 00:56:04;;;;;;;;;;;;;;;-6.99;40.92;99212.16;3391250;29;20052;-69
2021/12/22 00:57:46;;;;;;;4.72;2.70;;;;;;;-7.11;40.55;99206.78;3390169;29;20025;-70
2021/12/22 00:59:27;;;;;;;7.65;3.78;;;;;;;-7.13;40.73;99224.16;3390771;29;20043;-69
2021/12/22 01:01:07;;;;;;;7.28;3.22;;;;;;;-7.16;40.85;99215.75;3390661;29;20420;-68
2021/12/22 01:02:48;;;;;;;3.75;2.35;;;;;;;-7.22;40.78;99206.63;3390509;29;20087;-67
2021/12/22 01:04:29;;;;;;;5.80;2.47;;;;;;;-7.21;41.01;99216.03;3390600;29;20416;-67
2021/12/22 01:06:10;;;;;;;4.32;2.72;;;;;;;-7.22;41.02;99209.22;3390940;29;20156;-68
2021/12/22 01:07:51;;;;;;;5.10;3.30;;;;;;;-7.25;41.22;99212.81;3391224;29;20587;-68
2021/12/22 01:09:32;;;;;;;6.60;2.65;;;;;;;-7.30;40.75;99203.69;3391030;29;20048;-68
2021/12/22 01:11:13;;;;;;;5.30;2.33;;;;;;;-7.29;41.01;99207.91;3390870;29;20127;-68
2021/12/22 01:12:56;;;;;;;3.47;2.30;;;;;;;-7.33;41.04;99207.28;3376500;29;20496;-69
2021/12/22 01:14:38;;;;;;;3.10;2.58;;;;;;;-7.33;40.89;99201.25;3387828;29;20047;-68
2021/12/22 01:16:19;;;;;;;5.82;2.47;;;;;;;-7.34;40.83;99209.94;3390454;29;20058;-67
2021/12/22 01:18:14;;;;;;;6.18;2.45;;;;;;;-7.35;41.06;99205.72;3390319;29;20051;-69
2021/12/22 01:20:04;;;;;;;4.50;2.50;;;;;;;-7.38;40.75;99203.28;3390450;29;20040;-69
2021/12/22 01:21:50;;;;;;;5.03;2.88;;;;;;;-7.37;40.91;99210.16;3390471;29;20460;-69
2021/12/22 01:23:40;;;;;;;6.50;3.22;;;;;;;-7.40;41.06;99205.97;3390138;29;20079;-69
2021/12/22 01:25:23;;;;;;;4.35;2.72;;;;;;;-7.40;41.05;99212.94;3375950;29;20052;-68
2021/12/22 01:27:07;;;;;;;5.13;2.20;;;;;;;-7.44;40.86;99214.03;3388685;29;20056;-67
2021/12/22 01:28:48;;;;;;;6.88;2.42;;;;;;;-7.44;40.75;99219.19;3363242;29;20615;-68
2021/12/22 01:30:32;;;;;;;4.65;2.58;;;;;;;-7.47;40.81;99215.88;3397247;29;20040;-69
2021/12/22 01:32:13;;;;;;;5.10;2.30;;;;;;;-7.47;40.89;99218.44;3403276;29;20051;-69
2021/12/22 01:33:55;;;;;;;4.05;2.35;;;;;;;-7.51;40.82;99224.75;3403435;29;20047;-69
2021/12/22 01:35:37;;;;;;;;;;;;;;;-7.40;40.94;99226.69;3403722;29;20040;-68
2021/12/22 01:37:18;;;;;;;6.30;3.05;;;;;;;-7.46;40.73;99224.44;3403238;29;20013;-69
2021/12/22 01:38:59;;;;;;;5.30;2.50;;;;;;;-7.51;40.68;99222.16;3403269;29;20074;-68
2021/12/22 01:40:43;;;;;;;4.05;3.00;;;;;;;-7.53;40.88;99216.25;3398754;29;20066;-67
2021/12/22 01:42:23;;;;;;;3.10;2.55;;;;;;;-7.55;40.89;99218.09;3389581;29;20411;-66
2021/12/22 01:44:05;;;;;;;4.43;2.50;;;;;;;-7.55;40.86;99214.66;3389236;29;20036;-67
2021/12/22 01:49:50;;;;;;;5.13;2.50;;;;;;;-7.55;40.93;99207.72;3389631;29;20132;-68
2021/12/22 01:51:54;;;;;;;3.72;2.30;;;;;;;-7.57;40.98;99204.41;3389754;29;20068;-69
2021/12/22 01:53:42;;;;;;;7.35;2.90;;;;;;;-7.58;40.94;99187.22;3387006;29;20115;-67
2021/12/22 01:55:31;;;;;;;2.92;2.42;;;;;;;-7.63;40.97;99196.19;3377740;29;20049;-68
2021/12/22 01:57:13;;;;;;;4.25;2.25;;;;;;;-7.63;40.82;99204.78;3388039;29;20488;-68
2021/12/22 01:59:00;;;;;;;8.95;2.72;;;;;;;-7.62;40.89;99205.59;3387907;29;20040;-68
2021/12/22 02:00:40;;;;;;;4.75;2.63;;;;;;;-7.64;40.97;99212.63;3395986;29;20048;-68
2021/12/22 02:02:21;;;;;;;5.93;2.33;;;;;;;-7.65;40.93;99206.63;3398997;29;20068;-67
2021/12/22 02:04:04;;;;;;;4.63;2.65;;;;;;;-7.71;40.88;99207.81;3390813;29;20534;-67
2021/12/22 02:05:45;;;;;;;3.85;2.47;;;;;;;-7.70;40.89;99209.47;3394843;29;20061;-67
2021/12/22 02:07:26;;;;;;;3.75;2.70;;;;;;;-7.71;40.78;99202.66;3399707;29;20076;-67
2021/12/22 02:09:10;;;;;;;5.93;3.50;;;;;;;-7.75;40.86;99202.91;3389458;29;20066;-68
2021/12/22 02:10:51;;;;;;;5.32;2.42;;;;;;;-7.73;41.23;99203.66;3389626;29;20044;-68
2021/12/22 02:12:39;;;;;;;4.25;2.67;;;;;;;-7.74;41.06;99207.19;3389584;29;20047;-68
2021/12/22 02:14:20;;;;;;;9.13;2.58;;;;;;;-7.75;40.99;99205.50;3374957;29;20041;-69
2021/12/22 02:16:09;;;;;;;3.65;2.35;;;;;;;-7.81;40.93;99206.69;3386958;29;20040;-69
2021/12/22 02:17:50;;;;;;;7.38;4.13;;;;;;;-7.77;40.99;99207.34;3389265;29;20493;-70
2021/12/22 02:19:36;;;;;;;8.25;3.25;;;;;;;-7.78;41.13;99206.50;3389384;29;20040;-69
2021/12/22 02:21:19;;;;;;;3.45;2.63;;;;;;;-7.78;41.10;99208.28;3389348;29;20044;-69
2021/12/22 02:23:00;;;;;;;2.92;2.30;;;;;;;-7.80;41.21;99208.34;3385779;29;20528;-69
2021/12/22 02:24:49;;;;;;;4.55;2.58;;;;;;;-7.80;41.18;99207.53;3389859;29;20040;-70
2021/12/22 02:26:37;;;;;;;4.72;2.42;;;;;;;-7.81;41.10;99208.47;3376300;29;20052;-69
2021/12/22 02:28:23;;;;;;;6.15;2.80;;;;;;;-7.81;41.20;99206.69;3389128;29;20044;-68
2021/12/22 02:30:07;;;;;;;7.22;2.72;;;;;;;-7.81;41.14;99208.47;3394880;29;20499;-69
2021/12/22 02:34:15;;;;;;;5.47;2.95;;;;;;;-7.80;41.10;99207.53;3323851;29;20179;-69
2021/12/22 02:36:08;;;;;;;;;;;;;;;-7.73;41.16;99201.06;3324451;29;20042;-68
2021/12/22 02:37:49;;;;;;;2.97;1.70;;;;;;;-7.79;40.94;99206.63;3323851;29;20015;-69
2021/12/22 02:39:31;;;;;;;2.45;2.08;;;;;;;-7.82;40.88;99199.03;3354457;29;20052;-70
2021/12/22 02:41:14;;;;;;;3.92;2.47;;;;;;;-7.86;40.85;99206.13;3389572;29;20068;-70
2021/12/22 02:43:04;;;;;;;3.67;2.45;;;;;;;-7.90;40.87;99200.31;3388812;29;20127;-69
2021/12/22 02:44:45;;;;;;;4.20;2.35;;;;;;;-7.87;40.91;99208.81;3390123;29;20044;-69
2021/12/22 02:46:34;;;;;;;5.18;2.80;;;;;;;-7.87;40.82;99203.63;3391963;29;20067;-68
2021/12/22 02:48:16;;;;;;;6.45;3.38;;;;;;;-7.88;40.79;99210.56;3389202;29;20047;-68
2021/12/22 02:49:58;;;;;;;4.13;2.63;;;;;;;-7.88;40.67;99212.31;3399510;29;20047;-68
2021/12/22 02:51:40;;;;;;;3.65;2.10;;;;;;;-7.87;40.70;99211.38;3392553;29;20040;-68
2021/12/22 02:53:26;;;;;;;4.38;3.15;;;;;;;-7.87;40.61;99207.06;3388509;29;20044;-69
2021/12/22 02:55:08;;;;;;;7.28;2.97;;;;;;;-7.88;40.78;99209.72;3388846;29;20504;-70
2021/12/22 02:56:55;;;;;;;4.03;2.90;;;;;;;-7.90;40.73;99204.63;3389415;29;20507;-67
2021/12/22 02:58:44;;;;;;;3.60;2.80;;;;;;;-7.91;40.66;99206.41;3389547;29;20522;-68
2021/12/22 03:00:35;;;;;;;5.93;2.72;;;;;;;-7.91;40.60;99198.66;3389230;29;20051;-68
2021/12/22 03:02:46;;;;;;;6.45;2.78;;;;;;;-7.92;40.92;99198.75;3375404;29;20051;-68
2021/12/22 03:04:26;;;;;;;2.83;2.53;;;;;;;-7.93;40.50;99194.47;3388812;29;20415;-69
2021/12/22 03:06:09;;;;;;;3.90;2.45;;;;;;;-7.95;41.05;99197.19;3389457;29;20636;-69
2021/12/22 03:07:50;;;;;;;6.07;3.05;;;;;;;-7.96;40.87;99205.00;3375584;29;20052;-69
2021/12/22 03:09:33;;;;;;;4.95;2.95;;;;;;;-7.98;40.92;99199.91;3387803;29;20468;-69
2021/12/22 03:11:14;;;;;;;4.50;2.50;;;;;;;-7.99;40.88;99198.25;3375038;29;20040;-69
2021/12/22 03:13:02;;;;;;;5.43;3.88;;;;;;;-7.99;40.98;99198.25;3386238;29;20032;-69
2021/12/22 03:14:43;;;;;;;4.50;2.83;;;;;;;-8.02;41.09;99189.88;3390515;29;20100;-69
2021/12/22 03:16:24;;;;;;;6.30;3.47;;;;;;;-8.00;40.85;99191.44;3388096;29;20468;-69
2021/12/22 03:18:06;;;;;;;3.25;2.55;;;;;;;-8.00;41.00;99195.75;3399096;29;20043;-69
2021/12/22 03:19:47;;;;;;;;;;;;;;;-7.92;40.97;99198.75;3402637;29;20499;-70
2021/12/22 03:21:28;;;;;;;3.75;2.65;;;;;;;-7.96;40.80;99200.66;3402218;29;19951;-69
2021/12/22 03:23:08;;;;;;;3.65;2.35;;;;;;;-7.98;40.75;99197.34;3388212;29;20040;-71
2021/12/22 03:24:51;;;;;;;10.70;3.58;;;;;;;-7.99;40.76;99203.44;3374405;29;20045;-70
2021/12/22 03:26:32;;;;;;;5.28;3.15;;;;;;;-7.98;40.61;99205.09;3386430;29;20088;-70
2021/12/22 03:28:12;;;;;;;3.60;2.58;;;;;;;-7.98;40.76;99204.25;3388577;29;20044;-71
2021/12/22 03:29:53;;;;;;;7.18;3.38;;;;;;;-7.97;40.57;99203.38;3374825;29;20092;-70
2021/12/22 03:31:34;;;;;;;4.50;2.60;;;;;;;-7.96;40.72;99205.00;3386458;29;20051;-69
2021/12/22 03:33:15;;;;;;;4.70;2.47;;;;;;;-7.96;40.84;99213.59;3388897;29;20040;-69
2021/12/22 03:34:56;;;;;;;7.47;2.83;;;;;;;-7.94;41.10;99205.75;3388582;29;20451;-71
2021/12/22 03:36:37;;;;;;;6.05;3.45;;;;;;;-7.94;40.93;99198.84;3389098;29;20473;-71
2021/12/22 03:38:17;;;;;;;6.35;3.00;;;;;;;-7.93;40.97;99205.66;3389537;29;20511;-69
2021/12/22 03:39:58;;;;;;;5.70;3.15;;;;;;;-7.93;41.07;99205.66;3389491;29;20046;-69
2021/12/22 03:41:40;;;;;;;6.63;4.28;;;;;;;-7.95;41.01;99204.94;3389586;29;20040;-69
2021/12/22 03:43:20;;;;;;;4.57;3.22;;;;;;;-7.92;40.90;99209.09;3389938;29;20044;-70
2021/12/22 03:45:02;;;;;;;5.13;3.75;;;;;;;-8.03;40.91;99189.00;3389979;29;20076;-69
2021/12/22 03:46:42;;;;;;;6.53;3.97;;;;;;;-7.93;40.86;99204.81;3389047;29;20477;-69
2021/12/22 03:48:25;;;;;;;7.63;4.63;;;;;;;-7.95;40.86;99215.28;3389996;29;20052;-69
2021/12/22 03:50:06;;;;;;;;;;;;;;;-7.86;41.06;99219.06;3391894;29;20047;-69
2021/12/22 03:51:47;;;;;;;4.53;3.38;;;;;;;-7.92;40.48;99214.25;3391849;29;19930;-69
2021/12/22 03:53:27;;;;;;;10.90;3.90;;;;;;;-7.95;40.70;99215.28;3398803;29;20043;-70
2021/12/22 03:55:09;;;;;;;5.50;3.72;;;;;;;-7.99;40.85;99218.94;3397601;29;20407;-69
2021/12/22 03:56:50;;;;;;;6.55;4.43;;;;;;;-7.99;40.59;99216.38;3391292;29;20397;-68
2021/12/22 03:58:31;;;;;;;3.88;3.40;;;;;;;-8.04;40.53;99218.38;3391443;29;20042;-68
2021/12/22 04:00:12;;;;;;;5.78;3.80;;;;;;;-8.02;40.91;99221.72;3391506;29;20044;-70
2021/12/22 04:01:53;;;;;;;6.50;4.32;;;;;;;-8.02;40.94;99218.31;3391505;29;20048;-69
2021/12/22 04:03:36;;;;;;;11.27;5.70;;;;;;;-8.03;40.77;99216.63;3390882;29;20048;-69
2021/12/22 04:05:18;;;;;;;6.82;4.20;;;;;;;-8.00;41.19;99225.06;3390998;29;20047;-70
2021/12/22 04:06:59;;;;;;;7.88;3.88;;;;;;;-7.97;40.90;99221.47;3391758;29;20056;-70
2021/12/22 04:08:39;;;;;;;6.95;3.42;;;;;;;-7.95;40.99;99225.63;3391283;29;20079;-69
2021/12/22 04:10:22;;;;;;;7.50;3.50;;;;;;;-7.94;40.91;99231.63;3391493;29;20526;-70
2021/12/22 04:12:03;;;;;;;10.20;4.50;;;;;;;-7.97;40.75;99224.88;3391166;29;20126;-67
2021/12/22 04:13:44;;;;;;;8.20;4.57;;;;;;;-7.98;41.03;99230.13;3390675;29;20472;-67
2021/12/22 04:15:27;;;;;;;6.15;3.30;;;;;;;-8.00;41.04;99234.53;3397202;29;20411;-67
2021/12/22 04:17:08;;;;;;;7.82;4.18;;;;;;;-8.01;41.31;99232.88;3402255;29;20055;-69
2021/12/22 04:18:48;;;;;;;7.03;3.90;;;;;;;-8.01;41.10;99233.72;3377090;29;20040;-70
2021/12/22 04:20:30;;;;;;;6.38;4.10;;;;;;;-8.00;40.92;99237.97;3388222;29;20036;-68
2021/12/22 04:22:10;;;;;;;6.38;4.22;;;;;;;-7.98;41.19;99238.69;3391204;29;20127;-69
2021/12/22 04:23:51;;;;;;;6.70;3.90;;;;;;;-7.97;40.96;99237.81;3390971;29;20048;-69
2021/12/22 04:25:33;;;;;;;7.65;4.85;;;;;;;-7.95;41.08;99241.13;3377936;29;20442;-68
2021/12/22 04:27:14;;;;;;;7.00;4.47;;;;;;;-7.92;40.95;99240.13;3388008;29;20068;-67
2021/12/22 04:28:55;;;;;;;5.75;3.78;;;;;;;-7.93;40.83;99231.50;3390882;29;20504;-66
2021/12/22 04:30:38;;;;;;;4.47;3.88;;;;;;;-7.90;40.96;99233.94;3390513;29;20134;-66
2021/12/22 04:32:19;;;;;;;6.25;3.88;;;;;;;-7.86;40.96;99239.75;3377108;29;20051;-70
2021/12/22 04:34:03;;;;;;;5.43;3.47;;;;;;;-7.83;40.95;99239.56;3387429;29;20135;-66
2021/12/22 04:35:43;;;;;;;7.95;4.25;;;;;;;-7.81;41.24;99237.75;3391874;29;20075;-67
2021/12/22 04:37:24;;;;;;;5.85;4.00;;;;;;;-7.79;40.93;99237.66;3390725;29;20055;-68
2021/12/22 04:39:07;;;;;;;10.30;4.45;;;;;;;-7.76;41.20;99238.31;3376901;29;20430;-70
2021/12/22 04:40:47;;;;;;;7.65;3.75;;;;;;;-7.74;41.12;99240.81;3374200;29;20044;-71
2021/12/22 04:42:28;;;;;;;8.68;3.95;;;;;;;-7.73;41.10;99234.69;3387935;29;20490;-70
2021/12/22 04:44:09;;;;;;;5.30;3.70;;;;;;;-7.71;41.11;99231.09;3376846;29;20090;-70
2021/12/22 04:45:50;;;;;;;5.60;3.45;;;;;;;-7.68;41.00;99237.84;3381609;29;20425;-69
2021/12/22 04:47:31;;;;;;;7.43;2.97;;;;;;;-7.68;41.03;99232.69;3387336;29;20064;-70
2021/12/22 04:49:12;;;;;;;6.65;3.08;;;;;;;-7.67;41.02;99229.16;3401141;29;20102;-69
2021/12/22 04:50:52;;;;;;;4.80;2.92;;;;;;;-7.68;40.91;99230.91;3383236;29;20037;-70
2021/12/22 04:52:41;;;;;;;7.10;3.72;;;;;;;-7.68;40.99;99232.69;3387959;29;20558;-70
2021/12/22 04:56:08;;;;;;;6.00;4.35;;;;;;;-7.74;40.94;99233.06;3401843;29;20044;-70
2021/12/22 04:57:48;;;;;;;4.30;2.88;;;;;;;-7.76;41.20;99232.31;3403599;29;20063;-69
2021/12/22 04:59:29;;;;;;;7.57;4.43;;;;;;;-7.79;41.08;99228.13;3403327;29;20047;-69
2021/12/22 05:01:10;;;;;;;3.35;2.85;;;;;;;-7.80;41.19;99235.97;3393955;29;20052;-70
2021/12/22 05:02:51;;;;;;;5.97;3.60;;;;;;;-7.81;41.00;99234.31;3390308;29;20108;-71
2021/12/22 05:04:31;;;;;;;4.57;3.30;;;;;;;-7.85;41.09;99230.25;3390548;29;20104;-72
2021/12/22 05:06:12;;;;;;;6.93;4.05;;;;;;;-7.86;40.98;99226.00;3393682;29;20557;-71
2021/12/22 05:07:53;;;;;;;7.75;3.67;;;;;;;-7.87;41.13;99229.50;3391099;29;20040;-71
2021/12/22 05:09:34;;;;;;;6.97;3.97;;;;;;;-7.90;41.42;99231.34;3402340;29;20168;-71
2021/12/22 05:11:15;;;;;;;4.55;2.90;;;;;;;-7.92;41.12;99235.78;3393571;29;20060;-70
2021/12/22 05:12:55;;;;;;;6.90;3.55;;;;;;;-7.95;41.16;99230.78;3391542;29;20080;-68
2021/12/22 05:14:39;;;;;;;7.13;4.10;;;;;;;-7.95;41.19;99241.13;3391711;29;20071;-70
2021/12/22 05:16:20;;;;;;;7.00;3.70;;;;;;;-7.94;41.37;99232.44;3393288;29;20053;-72
2021/12/22 05:18:14;;;;;;;4.65;3.17;;;;;;;-7.92;41.33;99227.19;3403412;29;20135;-71
2021/12/22 05:19:54;;;;;;;5.43;3.65;;;;;;;-7.90;41.11;99227.91;3403085;29;20047;-72
2021/12/22 05:21:35;;;;;;;3.92;3.20;;;;;;;-7.91;41.09;99232.25;3390838;29;20032;-72
2021/12/22 05:23:17;;;;;;;7.70;4.00;;;;;;;-7.90;41.29;99228.78;3390204;29;20120;-69
2021/12/22 05:24:59;;;;;;;6.13;3.35;;;;;;;-7.88;41.02;99230.44;3390379;29;20549;-69
2021/12/22 05:26:40;;;;;;;3.30;2.72;;;;;;;-7.87;41.11;99237.25;3387429;29;20056;-68
2021/12/22 05:28:21;;;;;;;10.07;4.13;;;;;;;-7.87;41.08;99232.06;3393664;29;20159;-71
2021/12/22 05:30:05;;;;;;;6.28;3.95;;;;;;;-7.85;41.20;99235.41;3403045;29;20594;-70
2021/12/22 05:31:53;;;;;;;8.02;4.05;;;;;;;-7.83;41.24;99233.56;3387468;29;20512;-70
2021/12/22 05:33:33;;;;;;;5.65;3.80;;;;;;;-7.83;41.27;99234.41;3398144;29;20419;-70
2021/12/22 05:35:14;;;;;;;6.43;3.90;;;;;;;-7.83;41.28;99234.41;3389311;29;20052;-69
2021/12/22 05:36:55;;;;;;;10.10;5.18;;;;;;;-7.87;41.55;99227.75;3390170;29;20520;-71
2021/12/22 05:38:36;;;;;;;6.75;4.05;;;;;;;-7.87;41.36;99232.94;3391221;29;20051;-69
2021/12/22 05:40:17;;;;;;;6.70;3.45;;;;;;;-7.88;41.49;99240.78;3393543;29;20039;-69
2021/12/22 05:41:59;;;;;;;10.38;3.55;;;;;;;-7.92;41.49;99243.53;3403068;29;20040;-70
2021/12/22 05:43:40;;;;;;;8.18;4.30;;;;;;;-7.91;41.66;99242.59;3393290;29;20044;-70
2021/12/22 05:45:20;;;;;;;6.35;3.90;;;;;;;-7.93;41.57;99248.78;3389481;29;20059;-72
2021/12/22 05:47:01;;;;;;;6.85;3.83;;;;;;;-7.95;41.58;99240.28;3402929;29;20132;-74
2021/12/22 05:48:44;;;;;;;4.95;3.42;;;;;;;-7.91;41.83;99245.19;3401376;29;20485;-71
2021/12/22 05:50:25;;;;;;;10.60;5.18;;;;;;;-7.91;41.88;99244.38;3403217;29;20486;-70
2021/12/22 05:52:05;;;;;;;5.60;4.20;;;;;;;-7.93;41.87;99244.44;3402930;29;20043;-70
2021/12/22 05:53:46;;;;;;;5.60;3.28;;;;;;;-7.95;41.88;99240.28;3402597;29;20407;-70
2021/12/22 05:55:27;;;;;;;7.10;4.78;;;;;;;-7.98;41.62;99238.69;3401860;29;20118;-69
2021/12/22 05:57:08;;;;;;;5.18;4.00;;;;;;;-7.98;42.08;99241.28;3375834;29;20456;-71
2021/12/22 05:58:48;;;;;;;11.20;4.32;;;;;;;-8.02;41.60;99244.16;3387915;29;20123;-70
2021/12/22 06:00:29;;;;;;;7.38;3.58;;;;;;;-8.00;41.67;99245.75;3390044;29;20040;-70
2021/12/22 06:02:10;;;;;;;6.43;3.42;;;;;;;-8.00;41.87;99244.88;3389926;29;20051;-69
2021/12/22 06:03:51;;;;;;;7.68;3.60;;;;;;;-8.02;41.37;99239.81;3375557;29;20064;-70
2021/12/22 06:05:31;;;;;;;4.78;3.38;;;;;;;-8.02;41.11;99239.00;3386864;29;20044;-71
2021/12/22 06:07:12;;;;;;;5.80;3.70;;;;;;;-8.02;41.26;99239.81;3397155;29;20126;-70
2021/12/22 06:08:53;;;;;;;8.38;3.88;;;;;;;-8.05;41.36;99245.16;3398087;29;20443;-71
2021/12/22 06:10:34;;;;;;;6.57;3.72;;;;;;;-8.05;41.04;99255.50;3389596;29;20425;-70
2021/12/22 06:12:15;;;;;;;5.40;3.15;;;;;;;-8.04;41.25;99252.00;3389791;29;20044;-69
2021/12/22 06:13:57;;;;;;;4.80;3.63;;;;;;;-8.03;41.14;99242.47;3389672;29;20048;-69
2021/12/22 06:15:39;;;;;;;7.45;3.75;;;;;;;-8.02;40.81;99250.16;3389922;29;20080;-69
2021/12/22 06:17:20;;;;;;;5.00;3.33;;;;;;;-8.02;41.11;99255.34;3389727;29;20039;-70
2021/12/22 06:19:08;;;;;;;6.38;4.30;;;;;;;-8.04;41.15;99252.00;3390568;29;20538;-70
2021/12/22 06:20:48;;;;;;;6.07;3.55;;;;;;;-8.06;41.20;99247.84;3390156;29;20044;-70
2021/12/22 06:22:31;;;;;;;13.00;4.32;;;;;;;-8.09;41.34;99253.19;3389683;29;20408;-69
2021/12/22 06:24:12;;;;;;;7.75;4.28;;;;;;;-8.12;41.33;99251.59;3389278;29;20083;-69
2021/12/22 06:25:53;;;;;;;5.50;3.85;;;;;;;-8.15;41.32;99250.03;3375619;29;20643;-69
2021/12/22 06:27:34;;;;;;;5.90;3.95;;;;;;;-8.18;41.32;99249.38;3386433;29;20063;-69
2021/12/22 06:29:14;;;;;;;9.63;4.00;;;;;;;-8.19;41.29;99245.13;3376344;29;20453;-70
2021/12/22 06:30:55;;;;;;;9.13;4.32;;;;;;;-8.22;41.18;99250.47;3386531;29;20048;-71
2021/12/22 06:32:36;;;;;;;5.95;3.72;;;;;;;-8.22;41.27;99258.22;3398801;29;20557;-71
2021/12/22 06:34:17;;;;;;;9.73;4.30;;;;;;;-8.25;40.99;99251.47;3402525;29;20377;-70
2021/12/22 06:35:58;;;;;;;10.15;3.90;;;;;;;-8.24;41.16;99249.72;3389422;29;20066;-69
2021/12/22 06:37:38;;;;;;;8.68;4.55;;;;;;;-8.26;41.15;99248.97;3389140;29;20071;-70
2021/12/22 06:39:19;;;;;;;16.02;4.55;;;;;;;-8.26;40.97;99260.16;3389517;29;20040;-69
2021/12/22 06:41:00;;;;;;;7.50;3.65;;;;;;;-8.23;41.15;99254.81;3390026;29;20218;-71
2021/12/22 06:42:41;;;;;;;5.97;4.93;;;;;;;-8.23;41.22;99266.91;3390147;29;20360;-71
2021/12/22 06:44:23;;;;;;;7.07;4.50;;;;;;;-8.22;41.42;99268.56;3376625;29;20117;-70
2021/12/22 06:46:03;;;;;;;8.75;5.03;;;;;;;-8.22;41.36;99276.31;3374132;29;20063;-70
2021/12/22 06:47:44;;;;;;;6.75;3.85;;;;;;;-8.23;41.24;99272.06;3387442;29;20427;-71
2021/12/22 06:49:25;;;;;;;5.97;3.05;;;;;;;-8.24;41.40;99270.38;3390781;29;20035;-70
2021/12/22 06:51:06;;;;;;;8.77;3.78;;;;;;;-8.24;41.23;99267.81;3393155;29;20036;-70
2021/12/22 06:52:47;;;;;;;6.80;3.72;;;;;;;-8.23;41.09;99275.47;3390587;29;20528;-72
2021/12/22 06:54:28;;;;;;;5.50;4.13;;;;;;;-8.23;41.56;99272.91;3388989;29;20035;-70
2021/12/22 06:56:09;;;;;;;8.40;4.10;;;;;;;-8.21;41.22;99270.22;3391307;29;20040;-70
2021/12/22 06:57:49;;;;;;;5.22;3.95;;;;;;;-8.20;41.08;99277.88;3388251;29;20412;-70
2021/12/22 06:59:32;;;;;;;11.48;4.82;;;;;;;-8.17;41.42;99282.06;3398600;29;20047;-70
2021/12/22 07:01:17;;;;;;;5.97;4.25;;;;;;;-8.18;41.43;99276.06;3392319;29;20138;-69
2021/12/22 07:02:59;;;;;;;7.15;4.18;;;;;;;-8.17;41.41;99274.28;3387279;29;20044;-69
2021/12/22 07:04:40;;;;;;;7.82;4.00;;;;;;;-8.16;41.25;99294.03;3388524;29;20047;-70
2021/12/22 07:06:21;;;;;;;9.93;5.55;;;;;;;-8.17;41.44;99287.22;3387311;29;20044;-70
2021/12/22 07:08:01;;;;;;;7.43;4.80;;;;;;;-8.16;41.34;99284.56;3389394;29;20044;-71
2021/12/22 07:09:42;;;;;;;9.85;5.40;;;;;;;-8.12;41.25;99288.63;3389531;29;20368;-69
2021/12/22 07:11:23;;;;;;;6.70;3.97;;;;;;;-8.08;41.10;99291.03;3388776;29;20691;-70
2021/12/22 07:13:04;;;;;;;10.15;4.28;;;;;;;-8.06;41.13;99292.59;3375949;29;20539;-70
2021/12/22 07:14:45;;;;;;;9.13;3.85;;;;;;;-8.05;41.14;99291.72;3388077;29;20056;-69
2021/12/22 07:16:26;;;;;;;11.05;4.88;;;;;;;-8.00;41.06;99289.69;3376156;29;20044;-69
2021/12/22 07:18:08;;;;;;;8.50;4.30;;;;;;;-7.97;41.03;99283.53;3391339;29;20436;-69
2021/12/22 07:19:50;;;;;;;7.90;4.75;;;;;;;-7.91;40.87;99278.81;3389689;29;20555;-70
2021/12/22 07:21:31;;;;;;;7.20;4.57;;;;;;;-7.85;40.86;99281.97;3391548;29;20416;-69
2021/12/22 07:23:11;;;;;;;5.88;4.38;;;;;;;-7.81;41.07;99288.63;3401949;29;20158;-70
2021/12/22 07:24:52;;;;;;;5.28;3.63;;;;;;;-7.78;40.68;99291.88;3404736;29;20444;-70
2021/12/22 07:26:33;;;;;;;6.18;4.03;;;;;;;-7.72;40.87;99288.09;3404496;29;20138;-70
2021/12/22 07:28:14;;;;;;;6.50;3.78;;;;;;;-7.69;40.43;99286.19;3404610;29;20491;-69
2021/12/22 07:29:55;;;;;;;6.20;4.10;;;;;;;-7.66;40.61;99285.16;3404280;29;20499;-69
2021/12/22 07:31:36;;;;;;;5.65;3.15;;;;;;;-7.58;40.66;99292.47;3394495;29;20072;-70
2021/12/22 07:33:18;;;;;;;9.10;3.70;;;;;;;-7.55;40.79;99285.34;3392147;29;20075;-70
2021/12/22 07:35:05;;;;;;;;;;;;;;;-7.39;40.73;99294.81;3385958;29;20071;-69
2021/12/22 07:37:09;;;;;;;6.13;3.75;;;;;;;-7.37;40.30;99290.38;3394517;29;19930;-71
2021/12/22 07:38:58;;;;;;;10.20;3.22;;;;;;;-7.26;40.40;99295.75;3404938;29;20048;-70
2021/12/22 07:40:39;;;;;;;8.55;3.33;;;;;;;-7.11;40.07;99297.41;3386878;29;20491;-69
2021/12/22 07:42:20;;;;;;;7.30;3.58;;;;;;;-6.88;39.87;99300.38;3388958;29;20103;-69
2021/12/22 07:44:01;;;;;;;4.03;2.75;;;;;;;-6.60;39.44;99300.31;3391888;29;20420;-70
2021/12/22 07:45:41;;;;;;;6.53;3.47;;;;;;;-6.38;39.41;99299.78;3391672;29;20146;-69
2021/12/22 07:47:22;;;;;;;5.45;3.15;;;;;;;-6.23;39.39;99292.00;3391766;29;20100;-70
2021/12/22 07:49:03;;;;;;;6.78;3.75;;;;;;;-6.13;39.23;99292.25;3391201;29;20173;-70
2021/12/22 07:50:44;;;;;;;7.07;3.42;;;;;;;-6.09;39.31;99296.28;3391590;29;20047;-70
2021/12/22 07:52:27;;;;;;;6.75;2.85;;;;;;;-6.08;39.17;99292.78;3378765;29;20591;-70
2021/12/22 07:54:07;;;;;;;7.78;3.03;;;;;;;-6.08;39.32;99292.78;3390385;29;20042;-69
2021/12/22 07:55:53;;;;;;;9.70;3.20;;;;;;;-6.03;39.28;99294.13;3392765;29;20042;-70
2021/12/22 07:57:34;;;;;;;5.57;2.95;;;;;;;-6.02;39.28;99294.97;3400707;29;20427;-70
2021/12/22 07:59:14;;;;;;;5.78;2.35;;;;;;;-6.05;39.36;99295.16;3405140;29;20043;-70
2021/12/22 08:00:56;;;;;;;4.38;3.30;;;;;;;-6.06;39.29;99296.09;3384946;29;20040;-70
2021/12/22 08:02:37;;;;;;;5.00;3.03;;;;;;;-6.08;39.19;99290.19;3375279;29;20040;-70
2021/12/22 08:04:17;;;;;;;9.65;3.25;;;;;;;-6.10;39.38;99286.84;3376223;29;20172;-70
2021/12/22 08:05:58;;;;;;;8.52;3.92;;;;;;;-6.13;39.26;99292.25;3375962;29;20508;-69
2021/12/22 08:07:39;;;;;;;3.90;2.72;;;;;;;-6.16;39.13;99283.72;3387685;29;20167;-69
2021/12/22 08:09:25;;;;;;;5.60;3.47;;;;;;;-6.16;39.37;99288.91;3403145;29;20137;-70
2021/12/22 08:11:06;;;;;;;4.82;2.50;;;;;;;-6.17;39.24;99289.00;3397857;29;20036;-70